Main page
METAR-TAF:

METAR-TAF

Airports :

Minna Airport

Minna, Nigeria

latitude: 9-37N, longitude: 6-32E, elevation: 260 m

Current weather observation

The report was made 1 hour and 1 minutes ago, at 13:00 UTC
Wind 2 kt from the East/Northeast
Temperature 36°C
Humidity 21%
Pressure 1009 hPa
Visibility 10 km or more
no clouds below 1500 m and no cumulonimbus

METAR: DNMN 281300Z 07002KT CAVOK 36/10 Q1009

Time: 15:01 (14:01 UTC)

Forecast

The report was made 8 hours and 11 minutes ago, at 05:50 UTC
Forecast valid from 28 at 06 UTC to 29 at 12 UTC
Wind 2 kt from the Northwest
Visibility 10 km or more
no clouds below 1500 m and no cumulonimbus
Temporary
from 28 at 10 UTC to 28 at 16 UTC
Wind 10 kt from the South/Southeast
Becoming
from 28 at 20 UTC to 28 at 22 UTC
Wind 2 kt from the East/Northeast

TAF: DNMN 280550Z 2806/2912 32002KT CAVOK TEMPO 2810/2816 16010KT BECMG 2820/2822 07002KT

Weather observations and forecasts of more than 4000 airports (METAR and TAF reports).

The available stations are represented by yellow and red dots on the map.

Hover mouse over dot to see the name of the station.

Then click to see weather observations and forecasts.

To change the map : click on the green buttons with a black cross to zoom in, on the green button with a dash to zoom out, or on the green arrows for adjacent maps.


METAR-TAF: